Live aus Altenrhein
LIVE
LSZR 251220Z 31005KT 270V350 9999 FEW035 21/12 Q1021 NOSIG RMK J

People´s Info Center:

Öffnungszeiten Mo-Fr, 8-18 Uhr

 

info@peoples.ch

 
Aus Österreich:

T: +43 (0)5572 203 610

 

Aus CH / LI / DE:

T: +41 (0)71 858 51 60

 

Flughafen St. Gallen-Altenrhein: Abflug

 

Aktueller Flugstatus Abflüge
Plan Erw. nach Flug Info
10:40 10:40 Wien PE102
gelandet

Flughafen St. Gallen-Altenrhein: Ankunft

 

Aktueller Flugstatus Ankünfte
Plan Erw. von Flug Info
20:55 20:55 Wien PE107
planmässig